Time;durP1;ratioP1;P1;durP2;ratioP2;P2;SDS_P1;SDS_P2;PMS_P1;PMS_P2;Temp;Humidity;BMP_temperature;BMP_pressure;BME280_temperature;BME280_humidity;BME280_pressure;Samples;Min_cycle;Max_cycle;Signal;HPM_P1;HPM_P2
2021/12/22 00:02:05;;;;;;;0.77;0.22;;;;;23.70;99881.00;;;;5096561;28;20043;-79
2021/12/22 00:04:43;;;;;;;0.00;0.00;;;;;23.70;99866.00;;;;5113860;27;20035;-78
2021/12/22 00:07:14;;;;;;;0.10;0.10;;;;;23.80;99865.00;;;;5114801;27;20031;-77
2021/12/22 00:09:44;;;;;;;1.40;0.70;;;;;23.90;99827.00;;;;5116940;27;20506;-77
2021/12/22 00:12:14;;;;;;;0.00;0.00;;;;;23.90;99839.00;;;;5117473;27;20596;-77
2021/12/22 00:14:43;;;;;;;0.32;0.30;;;;;23.80;99821.00;;;;5118364;27;20047;-77
2021/12/22 00:17:13;;;;;;;0.10;0.10;;;;;23.80;99832.00;;;;5117614;27;20047;-77
2021/12/22 00:19:43;;;;;;;0.10;0.00;;;;;23.70;99811.00;;;;5114460;27;20043;-78
2021/12/22 00:22:12;;;;;;;0.00;0.00;;;;;23.60;99850.00;;;;5116392;27;20088;-78
2021/12/22 00:24:44;;;;;;;0.00;0.00;;;;;23.50;99848.00;;;;5118078;27;20049;-77
2021/12/22 00:27:14;;;;;;;0.00;0.00;;;;;23.30;99856.00;;;;5116424;27;20547;-75
2021/12/22 00:29:47;;;;;;;0.00;0.00;;;;;23.30;99831.00;;;;5112262;27;20049;-78
2021/12/22 00:32:18;;;;;;;0.00;0.00;;;;;23.20;99825.00;;;;5088860;27;20067;-77
2021/12/22 00:34:52;;;;;;;0.00;0.00;;;;;23.10;99841.00;;;;5087262;28;20067;-78
2021/12/22 00:37:31;;;;;;;0.00;0.00;;;;;23.00;99858.00;;;;5115919;27;20508;-76
2021/12/22 00:40:01;;;;;;;0.00;0.00;;;;;23.00;99866.00;;;;5127924;27;20076;-76
2021/12/22 00:42:30;;;;;;;0.00;0.00;;;;;23.10;99884.00;;;;5124998;27;20403;-77
2021/12/22 00:45:00;;;;;;;0.00;0.00;;;;;23.10;99881.00;;;;5107841;28;20572;-76
2021/12/22 00:47:32;;;;;;;0.00;0.00;;;;;23.00;99903.00;;;;5100850;28;20044;-76
2021/12/22 00:50:05;;;;;;;0.00;0.00;;;;;23.00;99883.00;;;;5106314;28;20131;-77
2021/12/22 00:52:34;;;;;;;0.00;0.00;;;;;23.00;99881.00;;;;5106491;28;20507;-76
2021/12/22 00:55:05;;;;;;;0.10;0.10;;;;;23.10;99859.00;;;;5105855;28;20059;-77
2021/12/22 00:57:38;;;;;;;0.52;0.35;;;;;23.10;99879.00;;;;5108300;28;20135;-76
2021/12/22 01:00:09;;;;;;;0.52;0.30;;;;;22.90;99887.00;;;;5108249;28;20051;-77
2021/12/22 01:02:39;;;;;;;3.42;0.80;;;;;22.80;99889.00;;;;5107476;28;20055;-77
2021/12/22 01:05:12;;;;;;;5.13;0.70;;;;;22.60;99857.00;;;;5107520;28;20494;-77
2021/12/22 01:07:44;;;;;;;1.90;0.98;;;;;22.50;99852.00;;;;5107373;28;20039;-76
2021/12/22 01:10:21;;;;;;;1.33;0.45;;;;;22.40;99853.00;;;;5106976;28;20040;-76
2021/12/22 01:12:54;;;;;;;0.00;0.00;;;;;22.20;99864.00;;;;5107259;28;20510;-76
2021/12/22 01:15:25;;;;;;;0.30;0.20;;;;;22.10;99875.00;;;;5107563;28;20481;-76
2021/12/22 01:18:10;;;;;;;0.80;0.80;;;;;22.20;99857.00;;;;5106651;28;20605;-76
2021/12/22 01:23:35;;;;;;;0.00;0.00;;;;;22.50;99870.00;;;;5107130;28;20414;-76
2021/12/22 01:26:07;;;;;;;0.10;0.10;;;;;22.40;99872.00;;;;5107507;28;20047;-76
2021/12/22 01:28:42;;;;;;;0.00;0.00;;;;;22.30;99869.00;;;;5105701;28;20506;-76
2021/12/22 01:31:16;;;;;;;0.00;0.00;;;;;22.20;99859.00;;;;5107382;28;20088;-77
2021/12/22 01:33:45;;;;;;;0.00;0.00;;;;;22.10;99892.00;;;;5108064;28;20044;-76
2021/12/22 01:36:15;;;;;;;0.00;0.00;;;;;22.00;99881.00;;;;5106633;28;20040;-77
2021/12/22 01:38:45;;;;;;;0.00;0.00;;;;;22.00;99840.00;;;;5106625;28;20069;-76
2021/12/22 01:41:14;;;;;;;0.00;0.00;;;;;22.00;99854.00;;;;5106450;28;20495;-76
2021/12/22 01:43:45;;;;;;;1.70;0.68;;;;;21.90;99828.00;;;;5106169;28;20089;-76
2021/12/22 01:49:14;;;;;;;0.57;0.57;;;;;21.80;99838.00;;;;5106691;28;20047;-77
2021/12/22 01:51:50;;;;;;;0.00;0.00;;;;;21.70;99832.00;;;;5107850;28;20749;-77
2021/12/22 01:54:20;;;;;;;0.00;0.00;;;;;21.70;99813.00;;;;5107214;28;20127;-76
2021/12/22 01:56:51;;;;;;;0.00;0.00;;;;;21.70;99800.00;;;;5106102;28;20047;-76
2021/12/22 01:59:21;;;;;;;0.00;0.00;;;;;21.70;99837.00;;;;5106621;28;20085;-77
2021/12/22 02:01:54;;;;;;;4.95;0.40;;;;;21.70;99838.00;;;;5106628;28;20039;-76
2021/12/22 02:04:24;;;;;;;0.73;0.73;;;;;21.80;99819.00;;;;5108011;28;20047;-76
2021/12/22 02:06:53;;;;;;;2.50;0.88;;;;;21.70;99854.00;;;;5110554;28;20048;-76
2021/12/22 02:09:29;;;;;;;0.00;0.00;;;;;21.70;99852.00;;;;5110806;28;20039;-76
2021/12/22 02:11:59;;;;;;;2.38;1.25;;;;;21.80;99867.00;;;;5110554;28;20510;-76
2021/12/22 02:14:31;;;;;;;0.63;0.43;;;;;21.80;99869.00;;;;5110914;28;20043;-76
2021/12/22 02:17:05;;;;;;;0.00;0.00;;;;;21.70;99884.00;;;;5110499;28;20039;-77
2021/12/22 02:19:39;;;;;;;0.00;0.00;;;;;21.70;99894.00;;;;5110481;28;20044;-76
2021/12/22 02:22:14;;;;;;;0.00;0.00;;;;;21.90;99905.00;;;;5110594;28;20035;-77
2021/12/22 02:24:49;;;;;;;0.00;0.00;;;;;22.00;99901.00;;;;5109437;28;20118;-76
2021/12/22 02:27:33;;;;;;;0.00;0.00;;;;;22.00;99888.00;;;;5110142;28;20043;-76
2021/12/22 02:30:06;;;;;;;0.00;0.00;;;;;21.90;99864.00;;;;5110353;28;20040;-76
2021/12/22 02:33:06;;;;;;;0.00;0.00;;;;;22.00;99871.00;;;;5110109;28;20043;-76
2021/12/22 02:35:52;;;;;;;0.00;0.00;;;;;21.90;99888.00;;;;5109973;28;20039;-75
2021/12/22 02:38:24;;;;;;;0.00;0.00;;;;;21.80;99882.00;;;;5109757;28;20052;-76
2021/12/22 02:40:53;;;;;;;0.00;0.00;;;;;21.80;99864.00;;;;5109487;28;20064;-76
2021/12/22 02:43:24;;;;;;;0.00;0.00;;;;;21.80;99861.00;;;;5109252;28;20421;-77
2021/12/22 02:45:55;;;;;;;0.52;0.38;;;;;21.80;99844.00;;;;5110392;28;20043;-76
2021/12/22 02:48:29;;;;;;;0.00;0.00;;;;;21.70;99871.00;;;;5110041;28;20080;-76
2021/12/22 02:51:01;;;;;;;0.00;0.00;;;;;21.70;99871.00;;;;5109855;28;20046;-76
2021/12/22 02:53:45;;;;;;;0.00;0.00;;;;;21.80;99857.00;;;;5109895;28;20050;-76
2021/12/22 03:06:38;;;;;;;0.65;0.38;;;;;21.70;99830.00;;;;5109454;28;20050;-76
2021/12/22 03:09:21;;;;;;;0.00;0.00;;;;;21.70;99837.00;;;;5109350;28;20506;-76
2021/12/22 03:11:52;;;;;;;0.00;0.00;;;;;21.60;99820.00;;;;5110058;28;20084;-76
2021/12/22 03:14:24;;;;;;;0.00;0.00;;;;;21.60;99811.00;;;;5107962;28;20052;-76
2021/12/22 03:16:55;;;;;;;0.00;0.00;;;;;21.60;99813.00;;;;5108779;28;20036;-76
2021/12/22 03:19:27;;;;;;;0.00;0.00;;;;;21.50;99806.00;;;;5110027;28;20052;-77
2021/12/22 03:22:07;;;;;;;0.00;0.00;;;;;21.60;99832.00;;;;5109745;28;20072;-76
2021/12/22 03:24:39;;;;;;;0.05;0.05;;;;;21.60;99823.00;;;;5109186;28;20047;-76
2021/12/22 03:27:09;;;;;;;0.05;0.05;;;;;21.60;99812.00;;;;5109424;28;20044;-76
2021/12/22 03:29:39;;;;;;;0.00;0.00;;;;;21.50;99819.00;;;;5109381;28;20039;-77
2021/12/22 03:32:10;;;;;;;;;;;;;21.50;99832.00;;;;5109522;28;20425;-76
2021/12/22 03:34:40;;;;;;;0.00;0.00;;;;;21.40;99817.00;;;;5109238;28;19924;-76
2021/12/22 03:37:11;;;;;;;0.00;0.00;;;;;21.40;99821.00;;;;5109782;28;20411;-76
2021/12/22 03:39:41;;;;;;;0.00;0.00;;;;;21.40;99817.00;;;;5109000;28;20051;-76
2021/12/22 03:42:12;;;;;;;0.00;0.00;;;;;21.30;99785.00;;;;5109315;28;20043;-76
2021/12/22 03:44:42;;;;;;;0.20;0.20;;;;;21.30;99790.00;;;;5108819;28;20114;-76
2021/12/22 03:47:12;;;;;;;0.00;0.00;;;;;21.30;99787.00;;;;5109109;28;20550;-76
2021/12/22 03:49:42;;;;;;;0.00;0.00;;;;;21.30;99790.00;;;;5108879;28;20068;-76
2021/12/22 03:52:12;;;;;;;0.00;0.00;;;;;21.20;99776.00;;;;5108234;28;20772;-77
2021/12/22 03:54:42;;;;;;;0.00;0.00;;;;;21.20;99757.00;;;;5108178;28;20052;-76
2021/12/22 03:57:11;;;;;;;0.00;0.00;;;;;21.10;99764.00;;;;5108403;28;20037;-76
2021/12/22 03:59:41;;;;;;;0.00;0.00;;;;;21.10;99778.00;;;;5109026;28;20044;-76
2021/12/22 04:02:11;;;;;;;0.03;0.03;;;;;21.10;99772.00;;;;5107182;28;20079;-76
2021/12/22 04:04:44;;;;;;;0.00;0.00;;;;;21.10;99762.00;;;;5108681;28;20048;-76
2021/12/22 04:07:15;;;;;;;0.00;0.00;;;;;21.00;99747.00;;;;5108738;28;20040;-77
2021/12/22 04:09:45;;;;;;;0.00;0.00;;;;;21.00;99742.00;;;;5108273;28;20050;-77
2021/12/22 04:12:15;;;;;;;0.00;0.00;;;;;21.00;99758.00;;;;5107718;28;20048;-76
2021/12/22 04:14:44;;;;;;;0.00;0.00;;;;;21.00;99765.00;;;;5108053;28;20089;-76
2021/12/22 04:17:13;;;;;;;0.00;0.00;;;;;21.10;99774.00;;;;5107609;28;20046;-76
2021/12/22 04:19:43;;;;;;;0.00;0.00;;;;;21.20;99775.00;;;;5107764;28;20059;-76
2021/12/22 04:22:12;;;;;;;0.00;0.00;;;;;21.30;99756.00;;;;5108909;28;20035;-76
2021/12/22 04:24:42;;;;;;;0.00;0.00;;;;;21.30;99746.00;;;;5108919;28;20043;-76
2021/12/22 04:27:12;;;;;;;0.03;0.03;;;;;21.40;99755.00;;;;5107216;28;20050;-76
2021/12/22 04:29:41;;;;;;;0.00;0.00;;;;;21.40;99747.00;;;;5107485;28;20040;-76
2021/12/22 04:32:10;;;;;;;0.00;0.00;;;;;21.30;99744.00;;;;5108017;28;20415;-77
2021/12/22 04:34:40;;;;;;;0.00;0.00;;;;;21.20;99733.00;;;;5107644;28;20116;-76
2021/12/22 04:37:10;;;;;;;0.17;0.17;;;;;21.20;99744.00;;;;5108058;28;20051;-75
2021/12/22 04:39:39;;;;;;;0.00;0.00;;;;;21.20;99736.00;;;;5107843;28;20047;-76
2021/12/22 04:42:09;;;;;;;0.00;0.00;;;;;21.10;99737.00;;;;5106539;28;20090;-76
2021/12/22 04:44:38;;;;;;;0.00;0.00;;;;;21.10;99715.00;;;;5107862;28;20059;-75
2021/12/22 04:47:07;;;;;;;0.00;0.00;;;;;21.00;99739.00;;;;5106466;28;20535;-76
2021/12/22 04:49:39;;;;;;;0.00;0.00;;;;;21.00;99736.00;;;;5107760;28;20047;-76
2021/12/22 04:52:15;;;;;;;0.00;0.00;;;;;21.00;99747.00;;;;5107584;28;20065;-76
2021/12/22 04:54:51;;;;;;;0.00;0.00;;;;;21.00;99733.00;;;;5107402;28;20035;-76
2021/12/22 04:57:21;;;;;;;0.00;0.00;;;;;21.00;99744.00;;;;5108672;28;20040;-77
2021/12/22 04:59:51;;;;;;;0.00;0.00;;;;;21.00;99747.00;;;;5107534;28;20071;-76
2021/12/22 05:02:20;;;;;;;0.00;0.00;;;;;21.00;99747.00;;;;5107387;28;20126;-76
2021/12/22 05:04:50;;;;;;;0.00;0.00;;;;;21.00;99748.00;;;;5107365;28;20122;-76
2021/12/22 05:07:20;;;;;;;0.00;0.00;;;;;21.00;99725.00;;;;5106169;28;20616;-76
2021/12/22 05:09:49;;;;;;;0.00;0.00;;;;;21.00;99722.00;;;;5107127;28;20051;-75
2021/12/22 05:12:18;;;;;;;0.00;0.00;;;;;21.00;99733.00;;;;5107716;28;20049;-76
2021/12/22 05:14:52;;;;;;;0.00;0.00;;;;;20.90;99746.00;;;;5107649;28;20035;-76
2021/12/22 05:17:37;;;;;;;0.00;0.00;;;;;20.90;99742.00;;;;5107284;28;20047;-76
2021/12/22 05:20:07;;;;;;;0.20;0.10;;;;;20.90;99746.00;;;;5107017;28;20048;-77
2021/12/22 05:22:37;;;;;;;0.00;0.00;;;;;20.90;99739.00;;;;5108115;28;20445;-76
2021/12/22 05:25:10;;;;;;;0.00;0.00;;;;;20.80;99743.00;;;;5105461;28;20061;-76
2021/12/22 05:27:41;;;;;;;0.00;0.00;;;;;20.70;99739.00;;;;5107356;28;20054;-76
2021/12/22 05:30:13;;;;;;;0.00;0.00;;;;;20.70;99745.00;;;;5106754;28;20422;-80
2021/12/22 05:32:43;;;;;;;0.00;0.00;;;;;20.70;99750.00;;;;5107315;28;20039;-78
2021/12/22 05:35:14;;;;;;;0.00;0.00;;;;;20.70;99746.00;;;;5106753;28;20506;-76
2021/12/22 05:37:43;;;;;;;1.50;0.77;;;;;20.80;99737.00;;;;5107169;28;20062;-77
2021/12/22 05:40:14;;;;;;;0.00;0.00;;;;;20.90;99718.00;;;;5106429;28;20384;-78
2021/12/22 05:42:43;;;;;;;0.00;0.00;;;;;21.00;99742.00;;;;5106544;28;20047;-77
2021/12/22 05:45:13;;;;;;;0.00;0.00;;;;;21.10;99715.00;;;;5106996;28;20655;-77
2021/12/22 05:47:42;;;;;;;0.00;0.00;;;;;21.30;99736.00;;;;5107065;28;20043;-76
2021/12/22 05:50:12;;;;;;;0.00;0.00;;;;;21.30;99721.00;;;;5105708;28;20463;-79
2021/12/22 05:52:41;;;;;;;0.00;0.00;;;;;21.30;99737.00;;;;5106898;28;20093;-75
2021/12/22 05:55:10;;;;;;;0.00;0.00;;;;;21.40;99741.00;;;;5106146;28;20043;-79
2021/12/22 05:57:40;;;;;;;0.00;0.00;;;;;21.30;99744.00;;;;5107946;28;20494;-76
2021/12/22 06:00:10;;;;;;;0.32;0.32;;;;;21.30;99732.00;;;;5087970;28;20056;-81
2021/12/22 06:02:40;;;;;;;0.55;0.55;;;;;21.30;99737.00;;;;5107182;28;20516;-77
2021/12/22 06:05:09;;;;;;;0.32;0.32;;;;;21.30;99757.00;;;;5106281;28;20039;-77
2021/12/22 06:07:39;;;;;;;0.00;0.00;;;;;21.30;99756.00;;;;5106874;28;20078;-81
2021/12/22 06:10:08;;;;;;;0.00;0.00;;;;;21.30;99755.00;;;;5107690;28;20555;-81
2021/12/22 06:12:38;;;;;;;0.00;0.00;;;;;21.20;99737.00;;;;5108984;28;20521;-76
2021/12/22 06:15:08;;;;;;;0.00;0.00;;;;;21.30;99745.00;;;;5109407;28;20044;-80
2021/12/22 06:17:37;;;;;;;0.00;0.00;;;;;21.30;99783.00;;;;5108716;28;20113;-78
2021/12/22 06:20:07;;;;;;;0.00;0.00;;;;;21.30;99762.00;;;;5108237;28;20048;-81
2021/12/22 06:22:37;;;;;;;0.00;0.00;;;;;21.30;99766.00;;;;5108133;28;20048;-78
2021/12/22 06:25:07;;;;;;;0.95;0.88;;;;;21.30;99793.00;;;;5108957;28;20506;-78
2021/12/22 06:27:36;;;;;;;0.00;0.00;;;;;21.40;99795.00;;;;5110169;28;20444;-79
2021/12/22 06:30:06;;;;;;;0.00;0.00;;;;;21.50;99804.00;;;;5109774;28;20096;-77
2021/12/22 06:32:35;;;;;;;0.60;0.60;;;;;21.50;99821.00;;;;5106810;28;20051;-77
2021/12/22 06:35:07;;;;;;;0.00;0.00;;;;;21.40;99807.00;;;;5106623;28;20039;-78
2021/12/22 06:37:37;;;;;;;0.00;0.00;;;;;21.40;99836.00;;;;5109217;28;20036;-80
2021/12/22 06:40:07;;;;;;;0.00;0.00;;;;;21.40;99840.00;;;;5109425;28;20490;-75
2021/12/22 06:42:38;;;;;;;0.00;0.00;;;;;21.40;99864.00;;;;5107152;28;20101;-75
2021/12/22 06:45:10;;;;;;;0.00;0.00;;;;;21.40;99866.00;;;;5106253;28;20498;-76
2021/12/22 06:47:41;;;;;;;0.00;0.00;;;;;21.50;99848.00;;;;5107975;28;20067;-76
2021/12/22 06:50:11;;;;;;;;;;;;;21.50;99853.00;;;;5106856;28;20118;-77
2021/12/22 06:52:40;;;;;;;0.00;0.00;;;;;21.50;99840.00;;;;5109483;28;19955;-77
2021/12/22 06:55:10;;;;;;;0.00;0.00;;;;;21.50;99844.00;;;;5109482;28;20047;-78
2021/12/22 06:57:39;;;;;;;0.00;0.00;;;;;21.50;99866.00;;;;5109825;28;20494;-82
2021/12/22 07:00:12;;;;;;;0.00;0.00;;;;;21.60;99838.00;;;;5110455;28;20066;-79
2021/12/22 07:02:42;;;;;;;0.00;0.00;;;;;21.60;99864.00;;;;5110749;27;20052;-77
2021/12/22 07:05:19;;;;;;;0.00;0.00;;;;;21.70;99860.00;;;;5109597;28;20062;-79
2021/12/22 07:07:49;;;;;;;0.00;0.00;;;;;21.70;99860.00;;;;5109900;28;20429;-77
2021/12/22 07:10:18;;;;;;;0.00;0.00;;;;;21.80;99875.00;;;;5110016;28;20466;-78
2021/12/22 07:12:48;;;;;;;0.00;0.00;;;;;21.80;99866.00;;;;5112246;28;20090;-78
2021/12/22 07:15:19;;;;;;;0.00;0.00;;;;;21.80;99884.00;;;;5111136;28;20087;-78
2021/12/22 07:17:50;;;;;;;0.00;0.00;;;;;21.80;99869.00;;;;5109561;28;20550;-78
2021/12/22 07:20:20;;;;;;;;;;;;;21.80;99889.00;;;;5109297;28;20048;-75
2021/12/22 07:22:49;;;;;;;0.00;0.00;;;;;21.80;99887.00;;;;5108324;28;19927;-77
2021/12/22 07:25:23;;;;;;;0.00;0.00;;;;;21.80;99882.00;;;;5109561;28;20047;-78
2021/12/22 07:27:53;;;;;;;1.25;0.57;;;;;21.80;99900.00;;;;5109282;28;20044;-79
2021/12/22 07:30:22;;;;;;;0.00;0.00;;;;;21.80;99894.00;;;;5109845;28;20108;-79
2021/12/22 07:32:52;;;;;;;0.00;0.00;;;;;21.80;99892.00;;;;5108821;28;20059;-78
2021/12/22 07:35:42;;;;;;;0.00;0.00;;;;;21.90;99886.00;;;;5109121;28;20085;-77
2021/12/22 07:38:24;;;;;;;0.00;0.00;;;;;21.80;99903.00;;;;5109278;28;20044;-79
2021/12/22 07:40:58;;;;;;;0.00;0.00;;;;;21.90;99900.00;;;;5107676;28;20054;-76
2021/12/22 07:43:29;;;;;;;0.00;0.00;;;;;21.90;99900.00;;;;5108942;28;20108;-79
2021/12/22 07:45:59;;;;;;;0.00;0.00;;;;;21.80;99908.00;;;;5108411;28;20525;-77
2021/12/22 07:48:29;;;;;;;0.00;0.00;;;;;21.80;99888.00;;;;5109252;28;20044;-77
2021/12/22 07:50:59;;;;;;;0.00;0.00;;;;;21.70;99907.00;;;;5109912;28;20097;-80
2021/12/22 07:53:29;;;;;;;0.00;0.00;;;;;21.70;99906.00;;;;5108274;28;20063;-78
2021/12/22 07:55:58;;;;;;;0.00;0.00;;;;;21.60;99911.00;;;;5111094;28;20051;-78
2021/12/22 07:58:28;;;;;;;0.10;0.00;;;;;21.50;99904.00;;;;5112108;28;20043;-79
2021/12/22 08:00:58;;;;;;;0.00;0.00;;;;;21.50;99888.00;;;;5108829;28;20043;-77
2021/12/22 08:03:27;;;;;;;0.00;0.00;;;;;21.50;99909.00;;;;5110359;28;20407;-77
2021/12/22 08:06:14;;;;;;;0.00;0.00;;;;;21.40;99908.00;;;;5110826;28;20433;-76
2021/12/22 08:08:43;;;;;;;0.00;0.00;;;;;21.40;99909.00;;;;5108312;28;20055;-76
2021/12/22 08:11:12;;;;;;;0.00;0.00;;;;;21.40;99911.00;;;;5111892;28;20780;-77
2021/12/22 08:13:42;;;;;;;0.00;0.00;;;;;21.30;99894.00;;;;5118815;28;20039;-75
2021/12/22 08:16:11;;;;;;;0.00;0.00;;;;;21.20;99904.00;;;;5119264;28;20048;-77
2021/12/22 08:18:41;;;;;;;0.00;0.00;;;;;21.20;99896.00;;;;5115965;28;20055;-76
2021/12/22 08:21:11;;;;;;;0.00;0.00;;;;;21.10;99898.00;;;;5116132;28;20078;-77
2021/12/22 08:23:40;;;;;;;0.00;0.00;;;;;21.10;99916.00;;;;5121090;28;20047;-75
2021/12/22 08:26:10;;;;;;;0.00;0.00;;;;;21.10;99901.00;;;;5120750;28;20039;-75
2021/12/22 08:28:39;;;;;;;0.00;0.00;;;;;21.10;99899.00;;;;5118580;28;20516;-76
2021/12/22 08:31:10;;;;;;;0.00;0.00;;;;;21.10;99903.00;;;;5117490;28;20039;-76
2021/12/22 08:33:44;;;;;;;0.00;0.00;;;;;21.10;99915.00;;;;5116830;28;20039;-76
2021/12/22 08:39:05;;;;;;;0.00;0.00;;;;;21.10;99921.00;;;;5117443;28;20048;-80
2021/12/22 08:41:39;;;;;;;0.00;0.00;;;;;21.10;99893.00;;;;5115743;28;20119;-74
2021/12/22 08:44:10;;;;;;;0.00;0.00;;;;;21.10;99890.00;;;;5119539;28;20036;-76
2021/12/22 08:46:42;;;;;;;0.00;0.00;;;;;21.20;99918.00;;;;5119527;28;20047;-76
2021/12/22 08:49:12;;;;;;;0.00;0.00;;;;;21.20;99905.00;;;;5118760;28;20066;-78
2021/12/22 08:51:42;;;;;;;0.00;0.00;;;;;21.10;99927.00;;;;5119548;28;20059;-77
2021/12/22 08:54:11;;;;;;;0.00;0.00;;;;;21.20;99919.00;;;;5114891;28;20494;-78
2021/12/22 08:56:41;;;;;;;0.00;0.00;;;;;21.20;99924.00;;;;5117272;28;20047;-75
2021/12/22 08:59:12;;;;;;;0.00;0.00;;;;;21.20;99943.00;;;;5116293;28;20044;-75
2021/12/22 09:01:41;;;;;;;0.00;0.00;;;;;21.20;99923.00;;;;5117434;28;20448;-75
2021/12/22 09:04:11;;;;;;;0.00;0.00;;;;;21.30;99941.00;;;;5115962;28;20056;-77
2021/12/22 09:06:41;;;;;;;0.00;0.00;;;;;21.30;99950.00;;;;5116688;28;20061;-76
2021/12/22 09:09:14;;;;;;;0.00;0.00;;;;;21.30;99937.00;;;;5099717;28;20461;-77
2021/12/22 09:11:44;;;;;;;0.00;0.00;;;;;21.30;99939.00;;;;5118399;28;20459;-78
2021/12/22 09:14:14;;;;;;;0.00;0.00;;;;;21.30;99956.00;;;;5117764;28;20073;-77
2021/12/22 09:16:44;;;;;;;0.00;0.00;;;;;21.30;99951.00;;;;5117704;28;20047;-77
2021/12/22 09:19:14;;;;;;;0.00;0.00;;;;;21.40;99961.00;;;;5114839;28;20085;-76
2021/12/22 09:21:44;;;;;;;0.10;0.10;;;;;21.40;99955.00;;;;5117549;28;20051;-79
2021/12/22 09:24:13;;;;;;;0.00;0.00;;;;;21.40;99964.00;;;;5117564;28;20051;-76
2021/12/22 09:26:43;;;;;;;0.00;0.00;;;;;21.50;99964.00;;;;5116415;28;20047;-79
2021/12/22 09:29:13;;;;;;;0.00;0.00;;;;;21.50;99968.00;;;;5116951;28;20051;-78
2021/12/22 09:31:42;;;;;;;0.00;0.00;;;;;21.50;99963.00;;;;5118398;28;20069;-78
2021/12/22 09:34:12;;;;;;;0.00;0.00;;;;;21.60;99968.00;;;;5117714;28;20040;-76
2021/12/22 09:36:43;;;;;;;0.00;0.00;;;;;21.70;99988.00;;;;5116484;28;20047;-76
2021/12/22 09:39:13;;;;;;;0.00;0.00;;;;;21.80;99975.00;;;;5118366;28;20579;-77
2021/12/22 09:41:42;;;;;;;0.00;0.00;;;;;21.80;99950.00;;;;5119604;28;20043;-75
2021/12/22 09:44:12;;;;;;;0.00;0.00;;;;;21.90;99987.00;;;;5116993;28;20047;-76
2021/12/22 09:46:42;;;;;;;0.00;0.00;;;;;22.00;99997.00;;;;5118089;28;20150;-75
2021/12/22 09:49:36;;;;;;;0.00;0.00;;;;;22.10;99999.00;;;;5116753;28;20097;-75
2021/12/22 09:52:19;;;;;;;0.00;0.00;;;;;22.20;99986.00;;;;5115705;28;20407;-79
2021/12/22 09:54:55;;;;;;;0.00;0.00;;;;;22.20;100010.00;;;;5113487;28;20043;-77
2021/12/22 09:57:25;;;;;;;0.00;0.00;;;;;22.40;99999.00;;;;5115831;28;20040;-75
2021/12/22 09:59:57;;;;;;;3.30;1.70;;;;;22.50;99989.00;;;;5114162;28;20043;-75
2021/12/22 10:02:30;;;;;;;0.00;0.00;;;;;22.70;99981.00;;;;5113499;28;20051;-77
2021/12/22 10:05:01;;;;;;;0.00;0.00;;;;;22.70;99992.00;;;;5109501;28;20422;-78
2021/12/22 10:07:37;;;;;;;0.00;0.00;;;;;22.80;100004.00;;;;5110097;28;20088;-80
2021/12/22 10:10:10;;;;;;;0.00;0.00;;;;;22.80;100002.00;;;;5110134;28;20043;-79
2021/12/22 10:12:40;;;;;;;0.60;0.10;;;;;23.00;100007.00;;;;5111103;28;20059;-77
2021/12/22 10:15:10;;;;;;;0.00;0.00;;;;;23.10;100015.00;;;;5111227;28;20050;-79
2021/12/22 10:17:46;;;;;;;0.00;0.00;;;;;23.00;100017.00;;;;5110547;28;20044;-77
2021/12/22 10:20:20;;;;;;;0.00;0.00;;;;;22.90;100026.00;;;;5111036;28;20043;-76
2021/12/22 10:22:51;;;;;;;0.00;0.00;;;;;22.90;100027.00;;;;5107610;28;20040;-78
2021/12/22 10:25:31;;;;;;;0.00;0.00;;;;;23.00;100016.00;;;;5108064;28;20032;-79
2021/12/22 10:28:07;;;;;;;0.00;0.00;;;;;23.00;100009.00;;;;5110908;28;20085;-79
2021/12/22 10:30:41;;;;;;;0.00;0.00;;;;;23.20;100016.00;;;;5109840;28;20324;-80
2021/12/22 10:33:24;;;;;;;0.00;0.00;;;;;23.10;100016.00;;;;5110532;28;20043;-78
2021/12/22 10:36:08;;;;;;;0.00;0.00;;;;;22.90;100036.00;;;;5111956;28;20116;-78
2021/12/22 10:38:38;;;;;;;0.00;0.00;;;;;22.80;100029.00;;;;5110126;28;20055;-78
2021/12/22 10:41:10;;;;;;;0.00;0.00;;;;;22.80;100061.00;;;;5110331;28;20040;-79
2021/12/22 10:43:47;;;;;;;0.00;0.00;;;;;22.90;100035.00;;;;5110680;28;20122;-80
2021/12/22 10:46:43;;;;;;;0.00;0.00;;;;;22.90;100065.00;;;;5110473;28;20058;-78
2021/12/22 10:49:20;;;;;;;0.00;0.00;;;;;23.00;100069.00;;;;5108579;28;20055;-78
2021/12/22 10:52:01;;;;;;;0.00;0.00;;;;;23.10;100050.00;;;;5109076;28;20042;-82
2021/12/22 10:54:41;;;;;;;0.00;0.00;;;;;23.20;100063.00;;;;5107051;28;20047;-82
2021/12/22 10:57:12;;;;;;;0.00;0.00;;;;;23.50;100045.00;;;;5110370;28;20043;-81
2021/12/22 10:59:53;;;;;;;0.00;0.00;;;;;23.60;100076.00;;;;5092455;28;20047;-78
2021/12/22 11:02:31;;;;;;;0.00;0.00;;;;;23.80;100067.00;;;;5110912;28;20429;-81
2021/12/22 11:05:06;;;;;;;0.00;0.00;;;;;23.80;100074.00;;;;5110335;28;20031;-77
2021/12/22 11:07:40;;;;;;;12.40;11.55;;;;;23.80;100074.00;;;;5109477;28;20036;-80
2021/12/22 11:10:27;;;;;;;0.00;0.00;;;;;23.60;100075.00;;;;5109592;28;20868;-82
2021/12/22 11:13:06;;;;;;;0.00;0.00;;;;;23.50;100096.00;;;;5109533;28;20123;-80
2021/12/22 11:15:44;;;;;;;0.00;0.00;;;;;23.40;100096.00;;;;5109349;28;20104;-78
2021/12/22 11:18:26;;;;;;;0.00;0.00;;;;;23.30;100098.00;;;;5110030;28;20117;-79
2021/12/22 11:21:10;;;;;;;0.00;0.00;;;;;23.30;100096.00;;;;5109690;28;20056;-78
2021/12/22 11:23:41;;;;;;;0.00;0.00;;;;;23.30;100095.00;;;;5110058;28;20114;-79
2021/12/22 11:26:13;;;;;;;0.00;0.00;;;;;23.40;100098.00;;;;5107475;28;20040;-78
2021/12/22 11:28:44;;;;;;;0.00;0.00;;;;;23.30;100103.00;;;;5109763;28;20143;-80
2021/12/22 11:31:13;;;;;;;0.00;0.00;;;;;23.30;100128.00;;;;5109037;28;20423;-80
2021/12/22 11:33:46;;;;;;;0.00;0.00;;;;;23.30;100116.00;;;;5109715;28;20043;-79
2021/12/22 11:36:16;;;;;;;0.00;0.00;;;;;23.20;100089.00;;;;5109246;28;20429;-78
2021/12/22 11:38:46;;;;;;;0.00;0.00;;;;;23.10;100121.00;;;;5090945;28;20047;-80
2021/12/22 11:41:18;;;;;;;0.00;0.00;;;;;23.10;100104.00;;;;5108916;28;20051;-80
2021/12/22 11:43:51;;;;;;;0.00;0.00;;;;;23.20;100109.00;;;;5108520;28;20051;-77
2021/12/22 11:46:30;;;;;;;0.00;0.00;;;;;23.30;100103.00;;;;5109147;28;20518;-78
2021/12/22 11:49:00;;;;;;;0.00;0.00;;;;;23.40;100089.00;;;;5108833;28;20032;-78
2021/12/22 11:51:32;;;;;;;0.00;0.00;;;;;23.30;100100.00;;;;5109455;27;20056;-76
2021/12/22 11:54:09;;;;;;;0.00;0.00;;;;;23.50;100105.00;;;;5109021;28;20114;-81
2021/12/22 11:56:48;;;;;;;0.00;0.00;;;;;23.60;100099.00;;;;5108213;28;20040;-78
2021/12/22 11:59:32;;;;;;;0.00;0.00;;;;;23.70;100108.00;;;;5109108;28;20093;-82
2021/12/22 12:02:20;;;;;;;0.00;0.00;;;;;23.80;100110.00;;;;5108810;28;20040;-77
2021/12/22 12:04:55;;;;;;;799.15;98.53;;;;;23.90;100097.00;;;;5109243;28;20112;-77
2021/12/22 12:08:07;;;;;;;12.77;11.60;;;;;24.00;100115.00;;;;5108932;28;20043;-80
2021/12/22 12:10:48;;;;;;;0.00;0.00;;;;;24.10;100138.00;;;;5108346;28;20055;-78
2021/12/22 12:13:37;;;;;;;0.00;0.00;;;;;24.00;100151.00;;;;5110622;28;20046;-79
2021/12/22 12:21:52;;;;;;;0.00;0.00;;;;;24.10;100132.00;;;;5108343;28;20044;-79
2021/12/22 12:25:05;;;;;;;0.00;0.00;;;;;24.60;100118.00;;;;5108568;28;20075;-78
2021/12/22 12:27:52;;;;;;;29.05;26.42;;;;;25.30;100101.00;;;;5091097;28;20431;-77
2021/12/22 12:30:23;;;;;;;0.00;0.00;;;;;25.60;100076.00;;;;5107975;28;20533;-80
2021/12/22 12:32:59;;;;;;;0.00;0.00;;;;;25.80;100115.00;;;;5108136;28;20088;-81
2021/12/22 12:35:32;;;;;;;0.00;0.00;;;;;26.20;100106.00;;;;5108372;28;20123;-77
2021/12/22 12:38:16;;;;;;;0.47;0.13;;;;;26.30;100112.00;;;;5107553;28;20126;-78
2021/12/22 12:40:57;;;;;;;0.55;0.55;;;;;27.00;100095.00;;;;5108376;28;20114;-77
2021/12/22 12:43:42;;;;;;;0.00;0.00;;;;;27.70;100088.00;;;;5107861;28;20067;-80
2021/12/22 12:49:15;;;;;;;0.10;0.10;;;;;26.40;100135.00;;;;5106900;28;20467;-78
2021/12/22 12:51:47;;;;;;;0.40;0.20;;;;;26.20;100141.00;;;;5107435;28;20044;-78
2021/12/22 12:54:21;;;;;;;0.10;0.10;;;;;26.30;100126.00;;;;5107623;28;20043;-79
2021/12/22 12:56:54;;;;;;;0.00;0.00;;;;;26.70;100127.00;;;;5105761;28;20043;-79
2021/12/22 12:59:46;;;;;;;0.55;0.55;;;;;26.80;100138.00;;;;5107801;28;20043;-81
2021/12/22 13:02:25;;;;;;;;;;;;;26.30;100136.00;;;;5107633;28;20040;-81
2021/12/22 13:05:02;;;;;;;0.00;0.00;;;;;25.90;100147.00;;;;5107704;28;19923;-79
2021/12/22 13:07:32;;;;;;;348.30;50.75;;;;;25.40;100148.00;;;;5106922;28;20050;-78
2021/12/22 13:10:12;;;;;;;47.03;28.10;;;;;24.90;100158.00;;;;5107135;28;20092;-79
2021/12/22 13:18:13;;;;;;;0.00;0.00;;;;;24.90;100145.00;;;;5107556;28;20036;-80